PWSweather.com
Personal Weather Stations
Station Observations
CLIFTONPWS
PenrithGB CA102ES

PenrithGB CA102ES

Lat: 54.630933, Lon: -2.718524

Elevation: 521

Station Type: Maplin N96GY

http://www.cliftonpws.co.uk/weather

Latest ConditionsUpdated 7:45:00 PM GMT Wednesday, Dec 12, 2018
Currently Today's Max Today's Min Today's Average
Temperature 38.8°F3.8°C 46.0°F7.8°C 38.8°F3.8°C 43.2°F6.2°C
Dew Point 35.9°F2.2°C 43.7°F6.5°C 35.9°F2.2°C 41.6°F5.3°C
Winds 1.7 mph ESE2.7 kmh ESE 3.6 mph -5.8 kmh - - 2.0 mph 3.2 kmh
Wind Gusts 9.8 mph15.8 kmh 13.6 mph21.9 kmh - -
Humidity 89% 97% 89% 94%
Pressure 29.96 in1014.6 mb 30.04 in1017.3 mb 29.96 in1014.6 mb -
Hour Temp Dew Point Humidity Winds Wind Gusts Pressure Precip Precip Rate Daily Precip Total
07:45 PM 38.8°F3.8°C 35.9°F2.2°C 89% 1.7 mph ESE2.7 kmh ESE 9.8 mph15.8 kmh 29.96 in1014.6 mb 0.00 in0.0 mm 0.00 in0.0 mm 0.00 in0.0 mm
07:30 PM 39.0°F3.9°C 36.3°F2.4°C 90% 1.8 mph NE2.9 kmh NE 6.0 mph9.7 kmh 29.96 in1014.6 mb 0.00 in0.0 mm 0.00 in0.0 mm 0.00 in0.0 mm
07:15 PM 39.6°F4.2°C 36.9°F2.7°C 90% 1.4 mph E2.3 kmh E 8.3 mph13.4 kmh 29.96 in1014.6 mb 0.00 in0.0 mm 0.00 in0.0 mm 0.00 in0.0 mm
07:00 PM 40.3°F4.6°C 37.6°F3.1°C 90% 1.9 mph NE3.1 kmh NE 9.8 mph15.8 kmh 29.96 in1014.6 mb 0.00 in0.0 mm 0.00 in0.0 mm 0.00 in0.0 mm
06:45 PM 40.5°F4.7°C 37.8°F3.2°C 90% 3.1 mph NNE5.0 kmh NNE 13.6 mph21.9 kmh 29.97 in1014.9 mb 0.00 in0.0 mm 0.00 in0.0 mm 0.00 in0.0 mm
06:30 PM 40.8°F4.9°C 38.1°F3.4°C 90% 3.0 mph SE4.8 kmh SE 11.4 mph18.3 kmh 29.97 in1014.9 mb 0.00 in0.0 mm 0.00 in0.0 mm 0.00 in0.0 mm
06:15 PM 41.2°F5.1°C 38.8°F3.8°C 91% 2.9 mph ESE4.7 kmh ESE 9.2 mph14.8 kmh 29.96 in1014.6 mb 0.00 in0.0 mm 0.00 in0.0 mm 0.00 in0.0 mm
06:00 PM 41.7°F5.4°C 39.3°F4.1°C 91% 2.7 mph SE4.3 kmh SE 11.4 mph18.3 kmh 29.96 in1014.6 mb 0.00 in0.0 mm 0.00 in0.0 mm 0.00 in0.0 mm
05:45 PM 42.3°F5.7°C 40.1°F4.5°C 92% 3.1 mph E5.0 kmh E 13.6 mph21.9 kmh 29.97 in1014.9 mb 0.00 in0.0 mm 0.00 in0.0 mm 0.00 in0.0 mm
05:30 PM 42.4°F5.8°C 40.6°F4.8°C 93% 2.0 mph E3.2 kmh E 11.4 mph18.3 kmh 29.97 in1014.9 mb 0.00 in0.0 mm 0.00 in0.0 mm 0.00 in0.0 mm
05:15 PM 42.4°F5.8°C 40.6°F4.8°C 93% 2.2 mph NE3.5 kmh NE 10.7 mph17.2 kmh 29.98 in1015.2 mb 0.00 in0.0 mm 0.00 in0.0 mm 0.00 in0.0 mm
05:00 PM 42.6°F5.9°C 40.7°F4.8°C 93% 1.9 mph ESE3.1 kmh ESE 8.3 mph13.4 kmh 29.98 in1015.2 mb 0.00 in0.0 mm 0.00 in0.0 mm 0.00 in0.0 mm
04:45 PM 42.6°F5.9°C 40.7°F4.8°C 93% 2.2 mph E3.5 kmh E 9.2 mph14.8 kmh 29.97 in1014.9 mb 0.00 in0.0 mm 0.00 in0.0 mm 0.00 in0.0 mm
04:30 PM 42.8°F6.0°C 40.9°F4.9°C 93% 2.6 mph E4.2 kmh E 13.0 mph20.9 kmh 29.98 in1015.2 mb 0.00 in0.0 mm 0.00 in0.0 mm 0.00 in0.0 mm
04:15 PM 42.8°F6.0°C 40.9°F4.9°C 93% 2.3 mph ESE3.7 kmh ESE 8.3 mph13.4 kmh 29.98 in1015.2 mb 0.00 in0.0 mm 0.00 in0.0 mm 0.00 in0.0 mm
04:00 PM 43.0°F6.1°C 41.1°F5.1°C 93% 2.0 mph E3.2 kmh E 9.2 mph14.8 kmh 29.98 in1015.2 mb 0.00 in0.0 mm 0.00 in0.0 mm 0.00 in0.0 mm
03:45 PM 43.0°F6.1°C 40.8°F4.9°C 92% 2.0 mph SE3.2 kmh SE 6.9 mph11.1 kmh 29.98 in1015.2 mb 0.00 in0.0 mm 0.00 in0.0 mm 0.00 in0.0 mm
03:30 PM 43.0°F6.1°C 40.8°F4.9°C 92% 1.7 mph E2.7 kmh E 10.7 mph17.2 kmh 29.97 in1014.9 mb 0.00 in0.0 mm 0.00 in0.0 mm 0.00 in0.0 mm
03:15 PM 43.0°F6.1°C 40.5°F4.7°C 91% 1.2 mph E1.9 kmh E 9.8 mph15.8 kmh 29.98 in1015.2 mb 0.00 in0.0 mm 0.00 in0.0 mm 0.00 in0.0 mm
03:00 PM 43.3°F6.3°C 40.9°F4.9°C 91% 1.6 mph N2.6 kmh N 9.8 mph15.8 kmh 29.98 in1015.2 mb 0.00 in0.0 mm 0.00 in0.0 mm 0.00 in0.0 mm
02:45 PM 43.9°F6.6°C 41.1°F5.1°C 90% 1.8 mph NE2.9 kmh NE 6.0 mph9.7 kmh 29.99 in1015.6 mb 0.00 in0.0 mm 0.00 in0.0 mm 0.00 in0.0 mm
02:30 PM 44.1°F6.7°C 41.3°F5.2°C 90% 2.1 mph NE3.4 kmh NE 7.6 mph12.2 kmh 29.98 in1015.2 mb 0.00 in0.0 mm 0.00 in0.0 mm 0.00 in0.0 mm
02:15 PM 44.6°F7.0°C 41.6°F5.3°C 89% 2.8 mph SE4.5 kmh SE 10.7 mph17.2 kmh 29.98 in1015.2 mb 0.00 in0.0 mm 0.00 in0.0 mm 0.00 in0.0 mm
02:00 PM 45.0°F7.2°C 42.2°F5.7°C 90% 1.9 mph NNW3.1 kmh NNW 7.6 mph12.2 kmh 29.99 in1015.6 mb 0.00 in0.0 mm 0.00 in0.0 mm 0.00 in0.0 mm
01:45 PM 45.0°F7.2°C 42.2°F5.7°C 90% 2.0 mph ESE3.2 kmh ESE 8.3 mph13.4 kmh 29.99 in1015.6 mb 0.00 in0.0 mm 0.00 in0.0 mm 0.00 in0.0 mm
01:30 PM 45.1°F7.3°C 42.4°F5.8°C 90% 2.5 mph SE4.0 kmh SE 10.7 mph17.2 kmh 30.00 in1015.9 mb 0.00 in0.0 mm 0.00 in0.0 mm 0.00 in0.0 mm
01:15 PM 45.1°F7.3°C 42.4°F5.8°C 90% 2.7 mph E4.3 kmh E 9.8 mph15.8 kmh 30.00 in1015.9 mb 0.00 in0.0 mm 0.00 in0.0 mm 0.00 in0.0 mm
01:00 PM 45.3°F7.4°C 42.6°F5.9°C 90% 3.6 mph E5.8 kmh E 10.7 mph17.2 kmh 30.00 in1015.9 mb 0.00 in0.0 mm 0.00 in0.0 mm 0.00 in0.0 mm
12:45 PM 45.7°F7.6°C 42.9°F6.1°C 90% 2.3 mph E3.7 kmh E 9.8 mph15.8 kmh 30.02 in1016.6 mb 0.00 in0.0 mm 0.00 in0.0 mm 0.00 in0.0 mm
12:30 PM 46.0°F7.8°C 43.6°F6.4°C 91% 1.5 mph NE2.4 kmh NE 6.0 mph9.7 kmh 30.02 in1016.6 mb 0.00 in0.0 mm 0.00 in0.0 mm 0.00 in0.0 mm
12:15 PM 45.9°F7.7°C 43.7°F6.5°C 92% 2.0 mph E3.2 kmh E 7.6 mph12.2 kmh 30.02 in1016.6 mb 0.00 in0.0 mm 0.00 in0.0 mm 0.00 in0.0 mm
12:00 PM 45.1°F7.3°C 43.5°F6.4°C 94% 1.6 mph NE2.6 kmh NE 8.3 mph13.4 kmh 30.02 in1016.6 mb 0.00 in0.0 mm 0.00 in0.0 mm 0.00 in0.0 mm
11:45 AM 44.4°F6.9°C 42.8°F6.0°C 94% 2.0 mph E3.2 kmh E 6.9 mph11.1 kmh 30.02 in1016.6 mb 0.00 in0.0 mm 0.00 in0.0 mm 0.00 in0.0 mm
11:30 AM 44.1°F6.7°C 42.7°F5.9°C 95% 2.1 mph NE3.4 kmh NE 8.3 mph13.4 kmh 30.03 in1016.9 mb 0.00 in0.0 mm 0.00 in0.0 mm 0.00 in0.0 mm
11:15 AM 43.7°F6.5°C 42.6°F5.9°C 96% 2.0 mph SE3.2 kmh SE 7.6 mph12.2 kmh 30.02 in1016.6 mb 0.00 in0.0 mm 0.00 in0.0 mm 0.00 in0.0 mm
11:00 AM 43.2°F6.2°C 42.1°F5.6°C 96% 2.6 mph ENE4.2 kmh ENE 8.3 mph13.4 kmh 30.03 in1016.9 mb 0.00 in0.0 mm 0.00 in0.0 mm 0.00 in0.0 mm
10:45 AM 42.8°F6.0°C 41.7°F5.4°C 96% 2.4 mph E3.9 kmh E 10.7 mph17.2 kmh 30.04 in1017.3 mb 0.00 in0.0 mm 0.00 in0.0 mm 0.00 in0.0 mm
10:30 AM 42.8°F6.0°C 41.7°F5.4°C 96% 2.5 mph SE4.0 kmh SE 9.2 mph14.8 kmh 30.04 in1017.3 mb 0.00 in0.0 mm 0.00 in0.0 mm 0.00 in0.0 mm
10:15 AM 42.8°F6.0°C 41.7°F5.4°C 96% 2.3 mph E3.7 kmh E 8.3 mph13.4 kmh 30.04 in1017.3 mb 0.00 in0.0 mm 0.00 in0.0 mm 0.00 in0.0 mm
10:00 AM 43.0°F6.1°C 41.9°F5.5°C 96% 2.0 mph N3.2 kmh N 9.2 mph14.8 kmh 30.04 in1017.3 mb 0.00 in0.0 mm 0.00 in0.0 mm 0.00 in0.0 mm
09:45 AM 43.0°F6.1°C 41.9°F5.5°C 96% 2.5 mph ESE4.0 kmh ESE 10.7 mph17.2 kmh 30.04 in1017.3 mb 0.00 in0.0 mm 0.00 in0.0 mm 0.00 in0.0 mm
09:30 AM 43.0°F6.1°C 41.9°F5.5°C 96% 2.3 mph E3.7 kmh E 9.8 mph15.8 kmh 30.04 in1017.3 mb 0.00 in0.0 mm 0.00 in0.0 mm 0.00 in0.0 mm
09:15 AM 42.6°F5.9°C 41.8°F5.4°C 97% 2.0 mph NW3.2 kmh NW 8.3 mph13.4 kmh 30.04 in1017.3 mb 0.00 in0.0 mm 0.00 in0.0 mm 0.00 in0.0 mm
09:00 AM 42.4°F5.8°C 41.6°F5.3°C 97% 2.7 mph N4.3 kmh N 10.7 mph17.2 kmh 30.03 in1016.9 mb 0.00 in0.0 mm 0.00 in0.0 mm 0.00 in0.0 mm
08:45 AM 42.1°F5.6°C 41.3°F5.2°C 97% 1.8 mph E2.9 kmh E 10.7 mph17.2 kmh 30.03 in1016.9 mb 0.00 in0.0 mm 0.00 in0.0 mm 0.00 in0.0 mm
08:30 AM 41.7°F5.4°C 40.9°F4.9°C 97% 2.0 mph NE3.2 kmh NE 9.8 mph15.8 kmh 30.03 in1016.9 mb 0.00 in0.0 mm 0.00 in0.0 mm 0.00 in0.0 mm
08:15 AM 41.7°F5.4°C 40.9°F4.9°C 97% 2.3 mph ENE3.7 kmh ENE 9.8 mph15.8 kmh 30.03 in1016.9 mb 0.00 in0.0 mm 0.00 in0.0 mm 0.00 in0.0 mm
08:00 AM 41.9°F5.5°C 41.1°F5.1°C 97% 2.9 mph NE4.7 kmh NE 11.4 mph18.3 kmh 30.02 in1016.6 mb 0.00 in0.0 mm 0.00 in0.0 mm 0.00 in0.0 mm
07:45 AM 42.1°F5.6°C 41.3°F5.2°C 97% 2.6 mph E4.2 kmh E 8.3 mph13.4 kmh 30.02 in1016.6 mb 0.00 in0.0 mm 0.00 in0.0 mm 0.00 in0.0 mm
07:30 AM 42.1°F5.6°C 41.3°F5.2°C 97% 1.6 mph N2.6 kmh N 9.2 mph14.8 kmh 30.02 in1016.6 mb 0.00 in0.0 mm 0.00 in0.0 mm 0.00 in0.0 mm
07:15 AM 42.1°F5.6°C 41.0°F5.0°C 96% 1.6 mph ESE2.6 kmh ESE 9.8 mph15.8 kmh 30.02 in1016.6 mb 0.00 in0.0 mm 0.00 in0.0 mm 0.00 in0.0 mm
07:00 AM 42.3°F5.7°C 41.2°F5.1°C 96% 2.1 mph E3.4 kmh E 8.3 mph13.4 kmh 30.02 in1016.6 mb 0.00 in0.0 mm 0.00 in0.0 mm 0.00 in0.0 mm
06:45 AM 42.4°F5.8°C 41.4°F5.2°C 96% 1.8 mph ESE2.9 kmh ESE 5.4 mph8.7 kmh 30.02 in1016.6 mb 0.00 in0.0 mm 0.00 in0.0 mm 0.00 in0.0 mm
06:30 AM 42.6°F5.9°C 41.6°F5.3°C 96% 1.4 mph ENE2.3 kmh ENE 5.4 mph8.7 kmh 30.02 in1016.6 mb 0.00 in0.0 mm 0.00 in0.0 mm 0.00 in0.0 mm
06:15 AM 42.8°F6.0°C 42.0°F5.6°C 97% 2.0 mph NE3.2 kmh NE 11.4 mph18.3 kmh 30.01 in1016.3 mb 0.00 in0.0 mm 0.00 in0.0 mm 0.00 in0.0 mm
06:00 AM 43.0°F6.1°C 42.2°F5.7°C 97% 1.3 mph S2.1 kmh S 6.0 mph9.7 kmh 30.00 in1015.9 mb 0.00 in0.0 mm 0.00 in0.0 mm 0.00 in0.0 mm
05:45 AM 43.0°F6.1°C 41.9°F5.5°C 96% 1.4 mph NE2.3 kmh NE 6.9 mph11.1 kmh 29.99 in1015.6 mb 0.00 in0.0 mm 0.00 in0.0 mm 0.00 in0.0 mm
05:30 AM 43.2°F6.2°C 42.1°F5.6°C 96% 2.0 mph NE3.2 kmh NE 6.0 mph9.7 kmh 30.00 in1015.9 mb 0.00 in0.0 mm 0.00 in0.0 mm 0.00 in0.0 mm
05:15 AM 43.2°F6.2°C 42.1°F5.6°C 96% 1.9 mph SE3.1 kmh SE 7.6 mph12.2 kmh 29.99 in1015.6 mb 0.00 in0.0 mm 0.00 in0.0 mm 0.00 in0.0 mm
05:00 AM 43.0°F6.1°C 41.9°F5.5°C 96% 1.0 mph ESE1.6 kmh ESE 5.4 mph8.7 kmh 29.99 in1015.6 mb 0.00 in0.0 mm 0.00 in0.0 mm 0.00 in0.0 mm
04:45 AM 43.2°F6.2°C 42.1°F5.6°C 96% 0.9 mph E1.4 kmh E 5.4 mph8.7 kmh 30.00 in1015.9 mb 0.00 in0.0 mm 0.00 in0.0 mm 0.00 in0.0 mm
04:30 AM 43.3°F6.3°C 42.3°F5.7°C 96% 1.1 mph ESE1.8 kmh ESE 3.8 mph6.1 kmh 30.00 in1015.9 mb 0.00 in0.0 mm 0.00 in0.0 mm 0.00 in0.0 mm
04:15 AM 43.3°F6.3°C 42.0°F5.6°C 95% 1.1 mph NE1.8 kmh NE 5.4 mph8.7 kmh 30.00 in1015.9 mb 0.00 in0.0 mm 0.00 in0.0 mm 0.00 in0.0 mm
04:00 AM 43.5°F6.4°C 42.2°F5.7°C 95% 0.9 mph NE1.4 kmh NE 7.6 mph12.2 kmh 30.01 in1016.3 mb 0.00 in0.0 mm 0.00 in0.0 mm 0.00 in0.0 mm
03:45 AM 43.7°F6.5°C 42.4°F5.8°C 95% 1.5 mph NE2.4 kmh NE 7.6 mph12.2 kmh 30.01 in1016.3 mb 0.00 in0.0 mm 0.00 in0.0 mm 0.00 in0.0 mm
03:30 AM 44.1°F6.7°C 42.4°F5.8°C 94% 1.6 mph E2.6 kmh E 7.6 mph12.2 kmh 30.01 in1016.3 mb 0.00 in0.0 mm 0.00 in0.0 mm 0.00 in0.0 mm
03:15 AM 44.2°F6.8°C 42.6°F5.9°C 94% 1.7 mph ESE2.7 kmh ESE 6.0 mph9.7 kmh 30.02 in1016.6 mb 0.00 in0.0 mm 0.00 in0.0 mm 0.00 in0.0 mm
03:00 AM 44.8°F7.1°C 43.2°F6.2°C 94% 1.7 mph ESE2.7 kmh ESE 6.9 mph11.1 kmh 30.02 in1016.6 mb 0.00 in0.0 mm 0.00 in0.0 mm 0.00 in0.0 mm
02:45 AM 44.8°F7.1°C 43.2°F6.2°C 94% 1.8 mph E2.9 kmh E 7.6 mph12.2 kmh 30.02 in1016.6 mb 0.00 in0.0 mm 0.00 in0.0 mm 0.00 in0.0 mm
02:30 AM 44.8°F7.1°C 43.2°F6.2°C 94% 2.1 mph E3.4 kmh E 6.0 mph9.7 kmh 30.03 in1016.9 mb 0.00 in0.0 mm 0.00 in0.0 mm 0.00 in0.0 mm
02:15 AM 44.6°F7.0°C 43.0°F6.1°C 94% 1.8 mph E2.9 kmh E 8.3 mph13.4 kmh 30.02 in1016.6 mb 0.00 in0.0 mm 0.00 in0.0 mm 0.00 in0.0 mm
02:00 AM 44.6°F7.0°C 43.0°F6.1°C 94% 2.3 mph NE3.7 kmh NE 6.9 mph11.1 kmh 30.02 in1016.6 mb 0.00 in0.0 mm 0.00 in0.0 mm 0.00 in0.0 mm
01:45 AM 44.8°F7.1°C 43.2°F6.2°C 94% 2.3 mph NE3.7 kmh NE 6.9 mph11.1 kmh 30.02 in1016.6 mb 0.00 in0.0 mm 0.00 in0.0 mm 0.00 in0.0 mm
01:30 AM 44.8°F7.1°C 43.2°F6.2°C 94% 2.1 mph E3.4 kmh E 6.9 mph11.1 kmh 30.02 in1016.6 mb 0.00 in0.0 mm 0.00 in0.0 mm 0.00 in0.0 mm
01:15 AM 45.0°F7.2°C 43.3°F6.3°C 94% 2.1 mph ESE3.4 kmh ESE 9.2 mph14.8 kmh 30.02 in1016.6 mb 0.00 in0.0 mm 0.00 in0.0 mm 0.00 in0.0 mm
01:00 AM 45.0°F7.2°C 43.3°F6.3°C 94% 1.5 mph E2.4 kmh E 6.9 mph11.1 kmh 30.02 in1016.6 mb 0.00 in0.0 mm 0.00 in0.0 mm 0.00 in0.0 mm
12:45 AM 44.8°F7.1°C 43.4°F6.3°C 95% 1.6 mph NNE2.6 kmh NNE 6.0 mph9.7 kmh 30.02 in1016.6 mb 0.00 in0.0 mm 0.00 in0.0 mm 0.00 in0.0 mm
12:30 AM 44.6°F7.0°C 43.3°F6.3°C 95% 1.8 mph E2.9 kmh E 8.3 mph13.4 kmh 30.02 in1016.6 mb 0.00 in0.0 mm 0.00 in0.0 mm 0.00 in0.0 mm
12:15 AM 44.4°F6.9°C 43.1°F6.2°C 95% 0.7 mph NE1.1 kmh NE 5.4 mph8.7 kmh 30.02 in1016.6 mb 0.00 in0.0 mm 0.00 in0.0 mm 0.00 in0.0 mm
12:00 AM 44.6°F7.0°C 43.3°F6.3°C 95% 1.2 mph NE1.9 kmh NE 4.5 mph7.2 kmh 30.02 in1016.6 mb 0.00 in0.0 mm 0.00 in0.0 mm 0.00 in0.0 mm